sensor_id;sensor_type;location;lat;lon;timestamp;temperature;humidity
53926;DHT22;39836;52.754;6.866;2023-07-13T12:30:15;21.90;79.80
53926;DHT22;39836;52.754;6.866;2023-07-13T12:32:59;22.00;80.10
53926;DHT22;39836;52.754;6.866;2023-07-13T12:35:27;22.20;80.00
53926;DHT22;39836;52.754;6.866;2023-07-13T12:37:57;22.30;80.10
53926;DHT22;39836;52.754;6.866;2023-07-13T12:40:28;22.40;79.50
53926;DHT22;39836;52.754;6.866;2023-07-13T12:42:57;22.30;79.40
53926;DHT22;39836;52.754;6.866;2023-07-13T12:45:27;22.00;79.50
53926;DHT22;39836;52.754;6.866;2023-07-13T12:48:02;21.70;78.30
53926;DHT22;39836;52.754;6.866;2023-07-13T12:50:40;21.50;77.50
53926;DHT22;39836;52.754;6.866;2023-07-13T12:53:15;21.20;76.60
53926;DHT22;39836;52.754;6.866;2023-07-13T12:55:46;21.00;77.30
53926;DHT22;39836;52.754;6.866;2023-07-13T12:58:26;20.80;78.10
53926;DHT22;39836;52.754;6.866;2023-07-13T13:00:55;20.60;78.40
53926;DHT22;39836;52.754;6.866;2023-07-13T13:06:04;20.10;80.00
53926;DHT22;39836;52.754;6.866;2023-07-13T13:08:35;19.80;80.30
53926;DHT22;39836;52.754;6.866;2023-07-13T13:11:03;19.70;80.40
53926;DHT22;39836;52.754;6.866;2023-07-13T13:13:29;19.60;80.60
53926;DHT22;39836;52.754;6.866;2023-07-13T13:15:55;19.50;79.90
53926;DHT22;39836;52.754;6.866;2023-07-13T13:18:22;19.60;80.20
53926;DHT22;39836;52.754;6.866;2023-07-13T13:20:50;19.90;80.70
53926;DHT22;39836;52.754;6.866;2023-07-13T13:23:18;20.50;80.80
53926;DHT22;39836;52.754;6.866;2023-07-13T13:25:48;21.10;81.30
53926;DHT22;39836;52.754;6.866;2023-07-13T13:28:19;21.70;80.70
53926;DHT22;39836;52.754;6.866;2023-07-13T13:30:47;22.10;78.80
53926;DHT22;39836;52.754;6.866;2023-07-13T13:33:15;22.60;79.00
53926;DHT22;39836;52.754;6.866;2023-07-13T13:35:43;22.90;76.70
53926;DHT22;39836;52.754;6.866;2023-07-13T13:38:22;23.20;77.30
53926;DHT22;39836;52.754;6.866;2023-07-13T13:40:49;23.30;75.80
53926;DHT22;39836;52.754;6.866;2023-07-13T13:43:23;23.60;74.30
53926;DHT22;39836;52.754;6.866;2023-07-13T13:45:54;23.80;73.10
53926;DHT22;39836;52.754;6.866;2023-07-13T13:48:33;24.00;73.40
53926;DHT22;39836;52.754;6.866;2023-07-13T13:51:00;24.20;72.20
53926;DHT22;39836;52.754;6.866;2023-07-13T13:53:26;24.50;73.80
53926;DHT22;39836;52.754;6.866;2023-07-13T13:55:52;24.70;73.70
53926;DHT22;39836;52.754;6.866;2023-07-13T13:58:21;25.00;73.80
53926;DHT22;39836;52.754;6.866;2023-07-13T14:00:47;25.10;72.20
53926;DHT22;39836;52.754;6.866;2023-07-13T14:03:18;25.20;72.40
53926;DHT22;39836;52.754;6.866;2023-07-13T14:05:44;25.30;70.30
53926;DHT22;39836;52.754;6.866;2023-07-13T14:08:19;25.50;72.20
53926;DHT22;39836;52.754;6.866;2023-07-13T14:10:48;25.50;71.90
53926;DHT22;39836;52.754;6.866;2023-07-13T14:13:42;25.50;70.90
53926;DHT22;39836;52.754;6.866;2023-07-13T14:16:16;25.70;69.50
53926;DHT22;39836;52.754;6.866;2023-07-13T14:18:45;25.90;69.90
53926;DHT22;39836;52.754;6.866;2023-07-13T14:21:14;25.80;69.60
53926;DHT22;39836;52.754;6.866;2023-07-13T14:23:40;25.80;69.00
53926;DHT22;39836;52.754;6.866;2023-07-13T14:26:12;26.00;69.10
53926;DHT22;39836;52.754;6.866;2023-07-13T14:28:43;26.40;69.20
53926;DHT22;39836;52.754;6.866;2023-07-13T14:31:11;26.70;68.10
53926;DHT22;39836;52.754;6.866;2023-07-13T14:33:37;26.70;67.10
53926;DHT22;39836;52.754;6.866;2023-07-13T14:36:28;26.70;67.50
53926;DHT22;39836;52.754;6.866;2023-07-13T14:38:55;26.70;66.60
53926;DHT22;39836;52.754;6.866;2023-07-13T14:41:21;26.80;66.10
53926;DHT22;39836;52.754;6.866;2023-07-13T14:43:47;26.90;66.20
53926;DHT22;39836;52.754;6.866;2023-07-13T14:46:31;27.10;66.80
53926;DHT22;39836;52.754;6.866;2023-07-13T14:49:05;27.30;66.40
53926;DHT22;39836;52.754;6.866;2023-07-13T14:51:31;27.50;67.00
53926;DHT22;39836;52.754;6.866;2023-07-13T14:54:04;28.00;66.90
53926;DHT22;39836;52.754;6.866;2023-07-13T14:56:30;28.30;67.10
53926;DHT22;39836;52.754;6.866;2023-07-13T14:58:56;28.30;66.80
53926;DHT22;39836;52.754;6.866;2023-07-13T15:01:21;28.60;67.50
53926;DHT22;39836;52.754;6.866;2023-07-13T15:03:50;28.70;65.80
53926;DHT22;39836;52.754;6.866;2023-07-13T15:06:17;28.10;65.60
53926;DHT22;39836;52.754;6.866;2023-07-13T15:08:45;27.60;65.70
53926;DHT22;39836;52.754;6.866;2023-07-13T15:11:11;26.80;65.40
53926;DHT22;39836;52.754;6.866;2023-07-13T15:13:38;26.70;65.80
53926;DHT22;39836;52.754;6.866;2023-07-13T15:16:09;27.20;66.40
53926;DHT22;39836;52.754;6.866;2023-07-13T15:18:39;27.60;65.50
53926;DHT22;39836;52.754;6.866;2023-07-13T15:21:10;27.20;65.50
53926;DHT22;39836;52.754;6.866;2023-07-13T15:23:39;27.30;65.70
53926;DHT22;39836;52.754;6.866;2023-07-13T15:26:05;27.70;66.00
53926;DHT22;39836;52.754;6.866;2023-07-13T15:28:32;28.10;65.30
53926;DHT22;39836;52.754;6.866;2023-07-13T15:30:57;28.40;66.00
53926;DHT22;39836;52.754;6.866;2023-07-13T15:33:28;28.70;66.30
53926;DHT22;39836;52.754;6.866;2023-07-13T15:35:55;28.90;65.90
53926;DHT22;39836;52.754;6.866;2023-07-13T15:38:30;28.90;65.50
53926;DHT22;39836;52.754;6.866;2023-07-13T15:40:56;29.00;65.40
53926;DHT22;39836;52.754;6.866;2023-07-13T15:43:22;29.40;65.00
53926;DHT22;39836;52.754;6.866;2023-07-13T15:45:49;29.50;64.90
53926;DHT22;39836;52.754;6.866;2023-07-13T15:50:49;29.40;64.40
53926;DHT22;39836;52.754;6.866;2023-07-13T15:53:28;29.20;64.80
53926;DHT22;39836;52.754;6.866;2023-07-13T15:55:54;28.60;64.50
53926;DHT22;39836;52.754;6.866;2023-07-13T15:58:20;27.60;64.50
53926;DHT22;39836;52.754;6.866;2023-07-13T16:00:47;26.80;64.70
53926;DHT22;39836;52.754;6.866;2023-07-13T16:03:19;26.30;64.70
53926;DHT22;39836;52.754;6.866;2023-07-13T16:05:46;25.80;64.90
53926;DHT22;39836;52.754;6.866;2023-07-13T16:08:24;25.60;64.90
53926;DHT22;39836;52.754;6.866;2023-07-13T16:10:50;25.30;64.30
53926;DHT22;39836;52.754;6.866;2023-07-13T16:13:21;24.90;64.70
53926;DHT22;39836;52.754;6.866;2023-07-13T16:15:47;24.70;64.80
53926;DHT22;39836;52.754;6.866;2023-07-13T16:18:14;24.60;64.70
53926;DHT22;39836;52.754;6.866;2023-07-13T16:20:45;24.60;64.90
53926;DHT22;39836;52.754;6.866;2023-07-13T16:23:13;24.40;65.00
53926;DHT22;39836;52.754;6.866;2023-07-13T16:25:39;24.20;65.10
53926;DHT22;39836;52.754;6.866;2023-07-13T16:28:06;24.10;65.30
53926;DHT22;39836;52.754;6.866;2023-07-13T16:30:32;23.90;65.60
53926;DHT22;39836;52.754;6.866;2023-07-13T16:33:03;23.80;65.60
53926;DHT22;39836;52.754;6.866;2023-07-13T16:35:39;23.80;66.00
53926;DHT22;39836;52.754;6.866;2023-07-13T16:38:17;23.80;66.00
53926;DHT22;39836;52.754;6.866;2023-07-13T16:40:43;23.90;65.60
53926;DHT22;39836;52.754;6.866;2023-07-13T16:43:13;23.90;66.00
53926;DHT22;39836;52.754;6.866;2023-07-13T16:45:39;23.80;65.60
53926;DHT22;39836;52.754;6.866;2023-07-13T16:48:17;23.60;65.70
53926;DHT22;39836;52.754;6.866;2023-07-13T16:50:45;23.50;65.60
53926;DHT22;39836;52.754;6.866;2023-07-13T16:53:26;23.30;66.00
53926;DHT22;39836;52.754;6.866;2023-07-13T16:55:53;23.30;66.40
53926;DHT22;39836;52.754;6.866;2023-07-13T16:58:22;23.30;66.70
53926;DHT22;39836;52.754;6.866;2023-07-13T17:00:51;23.30;66.80
53926;DHT22;39836;52.754;6.866;2023-07-13T17:03:18;23.30;66.90
53926;DHT22;39836;52.754;6.866;2023-07-13T17:05:45;23.30;66.90
53926;DHT22;39836;52.754;6.866;2023-07-13T17:10:40;23.20;66.70
53926;DHT22;39836;52.754;6.866;2023-07-13T17:13:10;23.10;66.80
53926;DHT22;39836;52.754;6.866;2023-07-13T17:15:36;23.10;66.90
53926;DHT22;39836;52.754;6.866;2023-07-13T17:18:04;23.00;67.00
53926;DHT22;39836;52.754;6.866;2023-07-13T17:20:38;22.90;67.10
53926;DHT22;39836;52.754;6.866;2023-07-13T17:23:19;22.90;67.20
53926;DHT22;39836;52.754;6.866;2023-07-13T17:25:46;22.90;67.10
53926;DHT22;39836;52.754;6.866;2023-07-13T17:28:13;22.80;67.40
53926;DHT22;39836;52.754;6.866;2023-07-13T17:30:41;22.80;67.50
53926;DHT22;39836;52.754;6.866;2023-07-13T17:33:29;22.80;67.60
53926;DHT22;39836;52.754;6.866;2023-07-13T17:35:57;22.80;67.70
53926;DHT22;39836;52.754;6.866;2023-07-13T17:38:30;22.90;68.10
53926;DHT22;39836;52.754;6.866;2023-07-13T17:40:56;22.90;67.80
53926;DHT22;39836;52.754;6.866;2023-07-13T17:43:22;22.90;67.50
53926;DHT22;39836;52.754;6.866;2023-07-13T17:45:57;22.80;67.60
53926;DHT22;39836;52.754;6.866;2023-07-13T17:48:29;22.80;67.70
53926;DHT22;39836;52.754;6.866;2023-07-13T17:50:55;22.80;67.70
53926;DHT22;39836;52.754;6.866;2023-07-13T17:53:21;22.80;67.60
53926;DHT22;39836;52.754;6.866;2023-07-13T20:53:27;17.50;76.00
53926;DHT22;39836;52.754;6.866;2023-07-13T20:55:53;17.50;75.70
53926;DHT22;39836;52.754;6.866;2023-07-13T20:58:19;17.40;75.70
53926;DHT22;39836;52.754;6.866;2023-07-13T21:00:45;17.40;75.80
53926;DHT22;39836;52.754;6.866;2023-07-13T21:03:26;17.30;75.90
